createdAt,value
2016-07-31T00:00:09.919Z,1006.07
2016-07-31T00:01:09.907Z,1006.09
2016-07-31T00:02:09.900Z,1006.03
2016-07-31T00:03:09.884Z,1006.03
2016-07-31T00:04:09.870Z,1006
2016-07-31T00:05:09.857Z,1005.95
2016-07-31T00:06:09.847Z,1005.95
2016-07-31T00:07:09.837Z,1005.98
2016-07-31T00:08:09.826Z,1005.97
2016-07-31T00:09:09.808Z,1006
2016-07-31T00:10:09.800Z,1006
2016-07-31T00:11:09.784Z,1006.01
2016-07-31T00:12:09.774Z,1006.03
2016-07-31T00:13:09.759Z,1006.01
2016-07-31T00:14:09.747Z,1005.97
2016-07-31T00:15:09.737Z,1006
2016-07-31T00:16:09.723Z,1005.99
2016-07-31T00:17:09.711Z,1005.97
2016-07-31T00:18:09.703Z,1005.99
2016-07-31T00:19:09.679Z,1005.96
2016-07-31T00:20:09.680Z,1005.96
2016-07-31T00:21:09.667Z,1005.94
2016-07-31T00:22:09.648Z,1005.94
2016-07-31T00:23:09.640Z,1005.91
2016-07-31T00:24:09.624Z,1005.93
2016-07-31T00:25:09.619Z,1005.92
2016-07-31T00:26:09.605Z,1005.91
2016-07-31T00:27:09.586Z,1005.9
2016-07-31T00:28:09.573Z,1005.89
2016-07-31T00:29:09.567Z,1005.89
2016-07-31T00:30:09.548Z,1005.9
2016-07-31T00:31:09.537Z,1005.9
2016-07-31T00:32:09.527Z,1005.86
2016-07-31T00:33:09.513Z,1005.89
2016-07-31T00:34:09.499Z,1005.82
2016-07-31T00:35:09.485Z,1005.82
2016-07-31T00:36:09.479Z,1005.81
2016-07-31T00:37:09.458Z,1005.8
2016-07-31T00:38:09.449Z,1005.77
2016-07-31T00:39:09.438Z,1005.77
2016-07-31T00:40:09.430Z,1005.74
2016-07-31T00:41:09.420Z,1005.73
2016-07-31T00:42:09.409Z,1005.72
2016-07-31T00:43:09.390Z,1005.7
2016-07-31T00:44:09.403Z,1005.7
2016-07-31T00:45:09.364Z,1005.66
2016-07-31T00:46:09.350Z,1005.66
2016-07-31T00:47:09.333Z,1005.66
2016-07-31T00:48:09.329Z,1005.68
2016-07-31T00:49:09.319Z,1005.64
2016-07-31T00:50:09.296Z,1005.67
2016-07-31T00:51:09.290Z,1005.64
2016-07-31T00:52:09.272Z,1005.62
2016-07-31T00:53:09.264Z,1005.61
2016-07-31T00:54:09.248Z,1005.59
2016-07-31T00:55:09.238Z,1005.58
2016-07-31T00:56:09.228Z,1005.54
2016-07-31T00:57:09.211Z,1005.56
2016-07-31T00:58:09.202Z,1005.51
2016-07-31T00:59:09.186Z,1005.54
2016-07-31T01:00:09.178Z,1005.54
2016-07-31T01:01:09.161Z,1005.56
2016-07-31T01:02:09.151Z,1005.54
2016-07-31T01:03:09.140Z,1005.53
2016-07-31T01:04:09.130Z,1005.51
2016-07-31T01:05:09.112Z,1005.49
2016-07-31T01:06:09.099Z,1005.48
2016-07-31T01:07:09.088Z,1005.48
2016-07-31T01:08:09.075Z,1005.46
2016-07-31T01:09:09.068Z,1005.47
2016-07-31T01:10:09.049Z,1005.47
2016-07-31T01:11:09.038Z,1005.51
2016-07-31T01:12:09.024Z,1005.5
2016-07-31T01:13:09.018Z,1005.49
2016-07-31T01:14:08.999Z,1005.5
2016-07-31T01:15:08.986Z,1005.51
2016-07-31T01:16:08.978Z,1005.51
2016-07-31T01:17:08.965Z,1005.47
2016-07-31T01:18:08.946Z,1005.46
2016-07-31T01:19:08.939Z,1005.53
2016-07-31T01:20:08.928Z,1005.51
2016-07-31T01:21:08.908Z,1005.51
2016-07-31T01:22:08.899Z,1005.51
2016-07-31T01:23:08.888Z,1005.48
2016-07-31T01:24:08.874Z,1005.47
2016-07-31T01:25:08.860Z,1005.47
2016-07-31T01:26:08.850Z,1005.44
2016-07-31T01:27:08.846Z,1005.47
2016-07-31T01:28:08.818Z,1005.45
2016-07-31T01:29:08.805Z,1005.43
2016-07-31T01:30:08.799Z,1005.45
2016-07-31T01:31:08.785Z,1005.43
2016-07-31T01:32:08.770Z,1005.46
2016-07-31T01:33:08.756Z,1005.45
2016-07-31T01:34:08.744Z,1005.41
2016-07-31T01:35:08.735Z,1005.41
2016-07-31T01:36:08.718Z,1005.42
2016-07-31T01:37:08.706Z,1005.44
2016-07-31T01:38:08.698Z,1005.42
2016-07-31T01:39:08.682Z,1005.43
2016-07-31T01:40:08.678Z,1005.46
2016-07-31T01:41:08.655Z,1005.48
2016-07-31T01:42:08.645Z,1005.49
2016-07-31T01:43:08.629Z,1005.49
2016-07-31T01:44:08.638Z,1005.5
2016-07-31T01:45:08.607Z,1005.47
2016-07-31T01:46:08.596Z,1005.49
2016-07-31T01:47:08.578Z,1005.5
2016-07-31T01:48:08.569Z,1005.46
2016-07-31T01:49:08.554Z,1005.49
2016-07-31T01:50:08.541Z,1005.53
2016-07-31T01:51:08.531Z,1005.57
2016-07-31T01:52:08.517Z,1005.57
2016-07-31T01:53:08.508Z,1005.58
2016-07-31T01:54:08.496Z,1005.61
2016-07-31T01:55:08.479Z,1005.64
2016-07-31T01:56:08.467Z,1005.64
2016-07-31T01:57:08.457Z,1005.64
2016-07-31T01:58:08.439Z,1005.69
2016-07-31T01:59:08.425Z,1005.67
2016-07-31T02:00:08.417Z,1005.67
2016-07-31T02:01:08.402Z,1005.73
2016-07-31T02:02:08.386Z,1005.71
2016-07-31T02:03:08.378Z,1005.7
2016-07-31T02:04:08.370Z,1005.7
2016-07-31T02:05:08.348Z,1005.71
2016-07-31T02:06:08.337Z,1005.72
2016-07-31T02:07:08.324Z,1005.71
2016-07-31T02:08:08.308Z,1005.73
2016-07-31T02:09:08.299Z,1005.72
2016-07-31T02:10:08.289Z,1005.72
2016-07-31T02:11:08.275Z,1005.72
2016-07-31T02:12:08.257Z,1005.68
2016-07-31T02:13:08.244Z,1005.71
2016-07-31T02:14:08.237Z,1005.67
2016-07-31T02:15:08.220Z,1005.67
2016-07-31T02:16:08.205Z,1005.69
2016-07-31T02:17:08.196Z,1005.68
2016-07-31T02:18:08.181Z,1005.65
2016-07-31T02:19:08.170Z,1005.69
2016-07-31T02:20:08.154Z,1005.68
2016-07-31T02:21:08.138Z,1005.74
2016-07-31T02:22:08.135Z,1005.77
2016-07-31T02:23:08.118Z,1005.76
2016-07-31T02:24:08.103Z,1005.78
2016-07-31T02:25:08.087Z,1005.75
2016-07-31T02:26:08.080Z,1005.75
2016-07-31T02:27:08.059Z,1005.72
2016-07-31T02:28:08.097Z,1005.72
2016-07-31T02:29:08.039Z,1005.7
2016-07-31T02:30:08.024Z,1005.66
2016-07-31T02:31:08.008Z,1005.69
2016-07-31T02:32:07.993Z,1005.68
2016-07-31T02:33:07.986Z,1005.75
2016-07-31T02:34:07.967Z,1005.71
2016-07-31T02:35:07.953Z,1005.68
2016-07-31T02:36:07.939Z,1005.73
2016-07-31T02:37:07.930Z,1005.73
2016-07-31T02:38:07.913Z,1005.75
2016-07-31T02:39:07.903Z,1005.73
2016-07-31T02:40:07.885Z,1005.75
2016-07-31T02:41:07.876Z,1005.73
2016-07-31T02:42:07.860Z,1005.71
2016-07-31T02:43:07.850Z,1005.72
2016-07-31T02:44:07.837Z,1005.67
2016-07-31T02:45:07.818Z,1005.7
2016-07-31T02:46:07.805Z,1005.72
2016-07-31T02:47:07.797Z,1005.71
2016-07-31T02:48:07.778Z,1005.69
2016-07-31T02:49:07.766Z,1005.7
2016-07-31T02:50:07.756Z,1005.71
2016-07-31T02:51:07.739Z,1005.73
2016-07-31T02:52:07.727Z,1005.7
2016-07-31T02:53:07.712Z,1005.74
2016-07-31T02:54:07.699Z,1005.72
2016-07-31T02:55:07.688Z,1005.74
2016-07-31T02:56:07.668Z,1005.74
2016-07-31T02:57:07.657Z,1005.77
2016-07-31T02:58:07.651Z,1005.76
2016-07-31T02:59:07.631Z,1005.77
2016-07-31T03:00:07.617Z,1005.74
2016-07-31T03:01:07.610Z,1005.71
2016-07-31T03:02:07.597Z,1005.7
2016-07-31T03:03:07.574Z,1005.68
2016-07-31T03:04:07.568Z,1005.67
2016-07-31T03:05:07.558Z,1005.68
2016-07-31T03:06:07.538Z,1005.74
2016-07-31T03:07:07.540Z,1005.7
2016-07-31T03:08:07.516Z,1005.69
2016-07-31T03:09:07.499Z,1005.7
2016-07-31T03:10:07.484Z,1005.69
2016-07-31T03:11:07.480Z,1005.71
2016-07-31T03:12:07.462Z,1005.63
2016-07-31T03:13:07.449Z,1005.66
2016-07-31T03:14:07.440Z,1005.64
2016-07-31T03:15:07.419Z,1005.61
2016-07-31T03:16:07.410Z,1005.62
2016-07-31T03:17:07.394Z,1005.64
2016-07-31T03:18:07.380Z,1005.63
2016-07-31T03:19:07.368Z,1005.57
2016-07-31T03:20:07.356Z,1005.6
2016-07-31T03:21:07.346Z,1005.59
2016-07-31T03:22:07.328Z,1005.59
2016-07-31T03:23:07.316Z,1005.54
2016-07-31T03:24:07.309Z,1005.54
2016-07-31T03:25:07.291Z,1005.56
2016-07-31T03:26:07.279Z,1005.53
2016-07-31T03:27:07.266Z,1005.51
2016-07-31T03:28:07.253Z,1005.47
2016-07-31T03:29:07.240Z,1005.46
2016-07-31T03:30:07.222Z,1005.44
2016-07-31T03:31:07.212Z,1005.43
2016-07-31T03:32:07.204Z,1005.46
2016-07-31T03:33:07.192Z,1005.4
2016-07-31T03:34:07.169Z,1005.42
2016-07-31T03:35:07.159Z,1005.39
2016-07-31T03:36:07.145Z,1005.38
2016-07-31T03:37:07.139Z,1005.39
2016-07-31T03:38:07.119Z,1005.36
2016-07-31T03:39:07.108Z,1005.38
2016-07-31T03:40:07.099Z,1005.33
2016-07-31T03:41:07.084Z,1005.32
2016-07-31T03:42:07.067Z,1005.31
2016-07-31T03:43:07.061Z,1005.31
2016-07-31T03:44:07.045Z,1005.28
2016-07-31T03:45:07.030Z,1005.31
2016-07-31T03:46:07.016Z,1005.33
2016-07-31T03:47:07.004Z,1005.29
2016-07-31T03:48:06.987Z,1005.29
2016-07-31T03:49:06.978Z,1005.29
2016-07-31T03:50:06.965Z,1005.27
2016-07-31T03:51:06.952Z,1005.27
2016-07-31T03:52:06.939Z,1005.23
2016-07-31T03:53:06.925Z,1005.24
2016-07-31T03:54:06.914Z,1005.24
2016-07-31T03:55:06.895Z,1005.21
2016-07-31T03:56:06.887Z,1005.16
2016-07-31T03:57:06.875Z,1005.17
2016-07-31T03:58:06.860Z,1005.15
2016-07-31T03:59:06.849Z,1005.11
2016-07-31T04:00:06.834Z,1005.09
2016-07-31T04:01:06.827Z,1005.06
2016-07-31T04:02:06.809Z,1005.09
2016-07-31T04:03:06.792Z,1005.06
2016-07-31T04:04:06.783Z,1005.01
2016-07-31T04:05:06.779Z,1005.05
2016-07-31T04:06:06.762Z,1005.03
2016-07-31T04:07:06.749Z,1005.09
2016-07-31T04:08:06.733Z,1005.08
2016-07-31T04:09:06.719Z,1005.12
2016-07-31T04:10:06.709Z,1005.14
2016-07-31T04:11:06.699Z,1005.13
2016-07-31T04:12:06.690Z,1005.11
2016-07-31T04:13:06.668Z,1005.13
2016-07-31T04:14:06.654Z,1005.11
2016-07-31T04:15:06.646Z,1005.09
2016-07-31T04:16:06.630Z,1005.08
2016-07-31T04:17:06.619Z,1005.09
2016-07-31T04:18:06.608Z,1005.05
2016-07-31T04:19:06.594Z,1005.1
2016-07-31T04:20:06.576Z,1005.04
2016-07-31T04:21:06.569Z,1005.07
2016-07-31T04:22:06.553Z,1005.1
2016-07-31T04:23:06.542Z,1005.11
2016-07-31T04:24:06.525Z,1005.09
2016-07-31T04:25:06.514Z,1005.1
2016-07-31T04:26:06.500Z,1005.15
2016-07-31T04:27:06.484Z,1005.14
2016-07-31T04:28:06.480Z,1005.13
2016-07-31T04:29:06.461Z,1005.14
2016-07-31T04:30:06.451Z,1005.15
2016-07-31T04:31:06.441Z,1005.17
2016-07-31T04:32:06.426Z,1005.14
2016-07-31T04:33:06.419Z,1005.19
2016-07-31T04:34:06.398Z,1005.19
2016-07-31T04:35:06.389Z,1005.2
2016-07-31T04:36:06.389Z,1005.2
2016-07-31T04:37:06.359Z,1005.2
2016-07-31T04:38:06.348Z,1005.22
2016-07-31T04:39:06.335Z,1005.22
2016-07-31T04:40:06.327Z,1005.21
2016-07-31T04:41:06.309Z,1005.21
2016-07-31T04:42:06.296Z,1005.22
2016-07-31T04:43:06.291Z,1005.19
2016-07-31T04:44:06.278Z,1005.22
2016-07-31T04:45:06.258Z,1005.19
2016-07-31T04:46:06.249Z,1005.2
2016-07-31T04:47:06.232Z,1005.17
2016-07-31T04:48:06.225Z,1005.18
2016-07-31T04:49:06.206Z,1005.14
2016-07-31T04:50:06.198Z,1005.2
2016-07-31T04:51:06.184Z,1005.2
2016-07-31T04:52:06.216Z,1005.23
2016-07-31T04:53:06.162Z,1005.23
2016-07-31T04:54:06.139Z,1005.23
2016-07-31T04:55:06.130Z,1005.21
2016-07-31T04:56:06.120Z,1005.26
2016-07-31T04:57:06.108Z,1005.28
2016-07-31T04:58:06.092Z,1005.27
2016-07-31T04:59:06.079Z,1005.26
2016-07-31T05:00:06.113Z,1005.26
2016-07-31T05:01:06.052Z,1005.27
2016-07-31T05:02:06.036Z,1005.23
2016-07-31T05:03:06.024Z,1005.24
2016-07-31T05:04:06.014Z,1005.21
2016-07-31T05:05:05.997Z,1005.23
2016-07-31T05:06:05.988Z,1005.2
2016-07-31T05:07:05.976Z,1005.23
2016-07-31T05:08:05.970Z,1005.22
2016-07-31T05:09:05.949Z,1005.22
2016-07-31T05:10:05.949Z,1005.22
2016-07-31T05:11:05.930Z,1005.19
2016-07-31T05:12:05.920Z,1005.23
2016-07-31T05:13:05.903Z,1005.2
2016-07-31T05:14:05.895Z,1005.25
2016-07-31T05:15:05.874Z,1005.27
2016-07-31T05:16:05.861Z,1005.22
2016-07-31T05:17:05.846Z,1005.27
2016-07-31T05:18:05.839Z,1005.25
2016-07-31T05:19:05.826Z,1005.26
2016-07-31T05:20:05.812Z,1005.25
2016-07-31T05:21:05.799Z,1005.29
2016-07-31T05:22:05.790Z,1005.32
2016-07-31T05:23:05.776Z,1005.3
2016-07-31T05:24:05.764Z,1005.32
2016-07-31T05:25:05.747Z,1005.34
2016-07-31T05:26:05.734Z,1005.36
2016-07-31T05:27:05.726Z,1005.37
2016-07-31T05:28:05.719Z,1005.41
2016-07-31T05:30:05.690Z,1005.41
2016-07-31T05:31:05.672Z,1005.47
2016-07-31T05:32:05.665Z,1005.48
2016-07-31T05:33:05.646Z,1005.48
2016-07-31T05:34:05.680Z,1005.53
2016-07-31T05:35:05.626Z,1005.54
2016-07-31T05:36:05.618Z,1005.58
2016-07-31T05:37:05.597Z,1005.59
2016-07-31T05:38:05.588Z,1005.61
2016-07-31T05:39:05.569Z,1005.58
2016-07-31T05:40:05.566Z,1005.64
2016-07-31T05:41:05.550Z,1005.65
2016-07-31T05:42:05.536Z,1005.62
2016-07-31T05:43:05.535Z,1005.64
2016-07-31T05:44:05.510Z,1005.71
2016-07-31T05:45:05.499Z,1005.72
2016-07-31T05:46:05.487Z,1005.77
2016-07-31T05:47:05.479Z,1005.78
2016-07-31T05:48:05.462Z,1005.8
2016-07-31T05:49:05.451Z,1005.78
2016-07-31T05:50:05.439Z,1005.84
2016-07-31T05:51:05.429Z,1005.83
2016-07-31T05:52:05.417Z,1005.84
2016-07-31T05:53:05.400Z,1005.85
2016-07-31T05:54:05.398Z,1005.81
2016-07-31T05:55:05.379Z,1005.85
2016-07-31T05:56:05.369Z,1005.86
2016-07-31T05:57:05.359Z,1005.83
2016-07-31T05:58:05.349Z,1005.85
2016-07-31T05:59:05.328Z,1005.84
2016-07-31T06:00:05.317Z,1005.83
2016-07-31T06:01:05.306Z,1005.86
2016-07-31T06:02:05.290Z,1005.83
2016-07-31T06:03:05.273Z,1005.85
2016-07-31T06:04:05.265Z,1005.83
2016-07-31T06:05:05.248Z,1005.84
2016-07-31T06:06:05.240Z,1005.85
2016-07-31T06:07:05.229Z,1005.87
2016-07-31T06:08:05.216Z,1005.88
2016-07-31T06:09:05.204Z,1005.88
2016-07-31T06:10:05.187Z,1005.88
2016-07-31T06:11:05.180Z,1005.85
2016-07-31T06:12:05.168Z,1005.86
2016-07-31T06:13:05.160Z,1005.89
2016-07-31T06:14:05.140Z,1005.87
2016-07-31T06:15:05.131Z,1005.88
2016-07-31T06:16:05.118Z,1005.87
2016-07-31T06:17:05.099Z,1005.85
2016-07-31T06:18:05.088Z,1005.87
2016-07-31T06:19:05.076Z,1005.88
2016-07-31T06:20:05.067Z,1005.86
2016-07-31T06:21:05.051Z,1005.84
2016-07-31T06:22:05.040Z,1005.85
2016-07-31T06:23:05.031Z,1005.83
2016-07-31T06:24:05.015Z,1005.85
2016-07-31T06:25:05.005Z,1005.85
2016-07-31T06:26:05.000Z,1005.81
2016-07-31T06:27:04.978Z,1005.84
2016-07-31T06:28:04.970Z,1005.88
2016-07-31T06:29:04.948Z,1005.9
2016-07-31T06:30:04.943Z,1005.88
2016-07-31T06:31:04.928Z,1005.94
2016-07-31T06:32:04.920Z,1005.96
2016-07-31T06:33:04.909Z,1005.93
2016-07-31T06:34:04.898Z,1005.98
2016-07-31T06:35:04.878Z,1005.97
2016-07-31T06:36:04.868Z,1005.95
2016-07-31T06:37:04.857Z,1006
2016-07-31T06:38:04.860Z,1005.95
2016-07-31T06:39:04.827Z,1005.95
2016-07-31T06:40:04.819Z,1006.01
2016-07-31T06:41:04.806Z,1005.97
2016-07-31T06:42:04.792Z,1005.95
2016-07-31T06:43:04.779Z,1005.97
2016-07-31T06:44:04.769Z,1005.97
2016-07-31T06:45:04.767Z,1005.93
2016-07-31T06:46:04.757Z,1005.94
2016-07-31T06:47:04.747Z,1005.91
2016-07-31T06:48:04.733Z,1005.9
2016-07-31T06:49:04.711Z,1005.91
2016-07-31T06:50:04.709Z,1005.86
2016-07-31T06:51:04.688Z,1005.93
2016-07-31T06:52:04.679Z,1005.95
2016-07-31T06:53:04.662Z,1005.93
2016-07-31T06:54:04.650Z,1005.96
2016-07-31T06:55:04.638Z,1005.94
2016-07-31T06:56:04.632Z,1005.97
2016-07-31T06:57:04.619Z,1005.93
2016-07-31T06:58:04.601Z,1005.96
2016-07-31T06:59:04.588Z,1005.93
2016-07-31T07:00:04.578Z,1005.96
2016-07-31T07:01:04.624Z,1005.96
2016-07-31T07:02:04.565Z,1005.98
2016-07-31T07:03:04.545Z,1005.99
2016-07-31T07:04:04.534Z,1005.99
2016-07-31T07:05:04.519Z,1005.96
2016-07-31T07:06:04.508Z,1005.97
2016-07-31T07:07:04.498Z,1005.95
2016-07-31T07:08:04.561Z,1006.01
2016-07-31T07:09:04.470Z,1006.02
2016-07-31T07:10:04.460Z,1005.96
2016-07-31T07:11:04.452Z,1005.98
2016-07-31T07:12:04.445Z,1006
2016-07-31T07:13:04.418Z,1006.01
2016-07-31T07:14:04.410Z,1006.02
2016-07-31T07:15:04.396Z,1005.95
2016-07-31T07:16:04.439Z,1005.94
2016-07-31T07:17:04.371Z,1005.98
2016-07-31T07:18:04.366Z,1006
2016-07-31T07:19:04.364Z,1006.01
2016-07-31T07:20:04.335Z,1006.03
2016-07-31T07:21:04.325Z,1006.02
2016-07-31T07:22:04.318Z,1006.04
2016-07-31T07:23:04.311Z,1006.05
2016-07-31T07:24:04.288Z,1006.04
2016-07-31T07:25:04.281Z,1006.07
2016-07-31T07:26:04.266Z,1006.03
2016-07-31T07:27:04.262Z,1006.02
2016-07-31T07:28:04.242Z,1006.04
2016-07-31T07:29:04.227Z,1006.04
2016-07-31T07:30:04.222Z,1006.09
2016-07-31T07:31:04.209Z,1006.11
2016-07-31T07:32:04.202Z,1006.09
2016-07-31T07:33:04.189Z,1006.12
2016-07-31T07:34:04.171Z,1006.13
2016-07-31T07:35:04.163Z,1006.13
2016-07-31T07:36:04.150Z,1006.13
2016-07-31T07:37:04.141Z,1006.08
2016-07-31T07:38:04.131Z,1006.06
2016-07-31T07:39:04.114Z,1006.05
2016-07-31T07:40:04.111Z,1006.04
2016-07-31T07:41:04.090Z,1006.03
2016-07-31T07:42:04.081Z,1006.07
2016-07-31T07:43:04.069Z,1006.01
2016-07-31T07:44:04.060Z,1006.08
2016-07-31T07:45:04.046Z,1006.08
2016-07-31T07:46:04.041Z,1006.06
2016-07-31T07:47:04.026Z,1006.03
2016-07-31T07:48:04.012Z,1006.05
2016-07-31T07:49:04.012Z,1005.98
2016-07-31T07:50:04.001Z,1005.98
2016-07-31T07:51:03.981Z,1006
2016-07-31T07:52:03.968Z,1005.99
2016-07-31T07:53:03.961Z,1006
2016-07-31T07:54:03.952Z,1006.01
2016-07-31T07:55:03.955Z,1006.05
2016-07-31T07:56:03.922Z,1006.01
2016-07-31T07:57:03.911Z,1006.06
2016-07-31T07:58:03.898Z,1006.07
2016-07-31T07:59:03.892Z,1006.06
2016-07-31T08:00:03.880Z,1006.07
2016-07-31T08:01:03.919Z,1006.11
2016-07-31T08:02:03.862Z,1006.08
2016-07-31T08:03:03.850Z,1006.12
2016-07-31T08:04:03.842Z,1006.09
2016-07-31T08:05:03.822Z,1006.12
2016-07-31T08:06:03.812Z,1006.13
2016-07-31T08:07:03.802Z,1006.13
2016-07-31T08:08:03.791Z,1006.15
2016-07-31T08:09:03.779Z,1006.18
2016-07-31T08:10:03.769Z,1006.17
2016-07-31T08:11:03.756Z,1006.17
2016-07-31T08:12:03.751Z,1006.19
2016-07-31T08:13:03.735Z,1006.19
2016-07-31T08:14:03.733Z,1006.18
2016-07-31T08:15:03.714Z,1006.24
2016-07-31T08:16:03.713Z,1006.19
2016-07-31T08:17:03.694Z,1006.2
2016-07-31T08:18:03.680Z,1006.18
2016-07-31T08:19:03.672Z,1006.19
2016-07-31T08:20:03.664Z,1006.22
2016-07-31T08:21:03.653Z,1006.19
2016-07-31T08:22:03.640Z,1006.21
2016-07-31T08:23:03.627Z,1006.17
2016-07-31T08:24:03.613Z,1006.21
2016-07-31T08:25:03.599Z,1006.2
2016-07-31T08:26:03.595Z,1006.21
2016-07-31T08:27:03.584Z,1006.19
2016-07-31T08:28:03.572Z,1006.17
2016-07-31T08:29:03.557Z,1006.2
2016-07-31T08:30:03.551Z,1006.19
2016-07-31T08:31:03.551Z,1006.2
2016-07-31T08:32:03.528Z,1006.23
2016-07-31T08:33:03.515Z,1006.23
2016-07-31T08:34:03.519Z,1006.23
2016-07-31T08:35:03.501Z,1006.27
2016-07-31T08:36:03.482Z,1006.27
2016-07-31T08:37:03.476Z,1006.28
2016-07-31T08:38:03.465Z,1006.27
2016-07-31T08:39:03.453Z,1006.3
2016-07-31T08:40:03.447Z,1006.27
2016-07-31T08:41:03.430Z,1006.28
2016-07-31T08:42:03.427Z,1006.26
2016-07-31T08:43:03.412Z,1006.29
2016-07-31T08:44:03.398Z,1006.33
2016-07-31T08:45:03.398Z,1006.29
2016-07-31T08:46:03.379Z,1006.3
2016-07-31T08:47:03.368Z,1006.28
2016-07-31T08:48:03.362Z,1006.33
2016-07-31T08:49:03.345Z,1006.33
2016-07-31T08:50:03.341Z,1006.33
2016-07-31T08:51:03.332Z,1006.29
2016-07-31T08:52:03.314Z,1006.27
2016-07-31T08:53:03.306Z,1006.3
2016-07-31T08:54:03.299Z,1006.26
2016-07-31T08:55:03.287Z,1006.29
2016-07-31T08:56:03.272Z,1006.29
2016-07-31T08:57:03.265Z,1006.29
2016-07-31T08:58:03.250Z,1006.34
2016-07-31T08:59:03.240Z,1006.32
2016-07-31T09:00:03.236Z,1006.33
2016-07-31T09:01:03.234Z,1006.29
2016-07-31T09:02:03.220Z,1006.33
2016-07-31T09:03:03.202Z,1006.29
2016-07-31T09:04:03.194Z,1006.29
2016-07-31T09:05:03.180Z,1006.32
2016-07-31T09:06:03.168Z,1006.34
2016-07-31T09:07:03.159Z,1006.31
2016-07-31T09:08:03.151Z,1006.28
2016-07-31T09:09:03.138Z,1006.31
2016-07-31T09:10:03.133Z,1006.32
2016-07-31T09:11:03.118Z,1006.36
2016-07-31T09:12:03.103Z,1006.37
2016-07-31T09:13:03.094Z,1006.31
2016-07-31T09:14:03.085Z,1006.33
2016-07-31T09:15:03.076Z,1006.32
2016-07-31T09:16:03.063Z,1006.34
2016-07-31T09:17:03.058Z,1006.31
2016-07-31T09:18:03.051Z,1006.3
2016-07-31T09:19:03.033Z,1006.3
2016-07-31T09:20:03.025Z,1006.32
2016-07-31T09:21:03.015Z,1006.31
2016-07-31T09:22:03.001Z,1006.35
2016-07-31T09:23:02.994Z,1006.38
2016-07-31T09:24:02.987Z,1006.38
2016-07-31T09:25:02.974Z,1006.37
2016-07-31T09:26:02.964Z,1006.44
2016-07-31T09:27:02.956Z,1006.42
2016-07-31T09:28:02.948Z,1006.4
2016-07-31T09:29:02.931Z,1006.33
2016-07-31T09:30:02.926Z,1006.4
2016-07-31T09:31:02.916Z,1006.38
2016-07-31T09:32:02.909Z,1006.35
2016-07-31T09:33:02.897Z,1006.38
2016-07-31T09:34:02.891Z,1006.4
2016-07-31T09:35:02.879Z,1006.43
2016-07-31T09:36:02.867Z,1006.42
2016-07-31T09:37:02.860Z,1006.41
2016-07-31T09:38:02.852Z,1006.42
2016-07-31T09:39:02.850Z,1006.46
2016-07-31T09:40:02.836Z,1006.49
2016-07-31T09:41:02.829Z,1006.49
2016-07-31T09:42:02.816Z,1006.52
2016-07-31T09:43:02.816Z,1006.52
2016-07-31T09:44:02.804Z,1006.48
2016-07-31T09:46:02.794Z,1006.49
2016-07-31T09:47:02.785Z,1006.54
2016-07-31T09:48:02.775Z,1006.47
2016-07-31T09:49:02.768Z,1006.46
2016-07-31T09:50:02.760Z,1006.45
2016-07-31T09:51:02.756Z,1006.43
2016-07-31T09:52:02.744Z,1006.43
2016-07-31T09:53:02.739Z,1006.43
2016-07-31T09:54:02.728Z,1006.49
2016-07-31T09:55:02.770Z,1006.51
2016-07-31T09:56:02.719Z,1006.49
2016-07-31T09:57:02.708Z,1006.49
2016-07-31T09:58:02.698Z,1006.51
2016-07-31T09:59:02.698Z,1006.56
2016-07-31T10:01:02.680Z,1006.56
2016-07-31T10:02:02.666Z,1006.53
2016-07-31T10:03:02.659Z,1006.56
2016-07-31T10:04:02.649Z,1006.54
2016-07-31T10:05:02.640Z,1006.56
2016-07-31T10:06:02.634Z,1006.59
2016-07-31T10:07:02.628Z,1006.59
2016-07-31T10:08:02.618Z,1006.61
2016-07-31T10:09:02.617Z,1006.62
2016-07-31T10:10:02.599Z,1006.63
2016-07-31T10:11:02.587Z,1006.62
2016-07-31T10:12:02.578Z,1006.65
2016-07-31T10:13:02.575Z,1006.67
2016-07-31T10:14:02.567Z,1006.67
2016-07-31T10:15:02.559Z,1006.66
2016-07-31T10:16:02.545Z,1006.64
2016-07-31T10:17:02.538Z,1006.65
2016-07-31T10:18:02.537Z,1006.67
2016-07-31T10:19:02.522Z,1006.69
2016-07-31T10:20:02.507Z,1006.74
2016-07-31T10:21:02.500Z,1006.71
2016-07-31T10:22:02.488Z,1006.7
2016-07-31T10:23:02.479Z,1006.69
2016-07-31T10:24:02.476Z,1006.66
2016-07-31T10:25:02.458Z,1006.73
2016-07-31T10:26:02.452Z,1006.74
2016-07-31T10:27:02.450Z,1006.73
2016-07-31T10:28:02.440Z,1006.74
2016-07-31T10:29:02.438Z,1006.75
2016-07-31T10:30:02.415Z,1006.73
2016-07-31T10:31:02.405Z,1006.76
2016-07-31T10:32:02.396Z,1006.76
2016-07-31T10:33:02.390Z,1006.76
2016-07-31T10:34:02.377Z,1006.76
2016-07-31T10:35:02.368Z,1006.74
2016-07-31T10:36:02.358Z,1006.72
2016-07-31T10:37:02.346Z,1006.72
2016-07-31T10:38:02.334Z,1006.73
2016-07-31T10:39:02.328Z,1006.74
2016-07-31T10:40:02.318Z,1006.73
2016-07-31T10:41:02.306Z,1006.74
2016-07-31T10:42:02.297Z,1006.73
2016-07-31T10:43:02.290Z,1006.72
2016-07-31T10:44:02.341Z,1006.71
2016-07-31T10:45:02.262Z,1006.69
2016-07-31T10:46:02.260Z,1006.65
2016-07-31T10:47:02.252Z,1006.63
2016-07-31T10:48:02.236Z,1006.62
2016-07-31T10:49:02.224Z,1006.61
2016-07-31T10:50:02.220Z,1006.58
2016-07-31T10:51:02.199Z,1006.56
2016-07-31T10:52:02.196Z,1006.59
2016-07-31T10:53:02.184Z,1006.56
2016-07-31T10:54:02.171Z,1006.56
2016-07-31T10:55:02.168Z,1006.56
2016-07-31T10:56:02.157Z,1006.55
2016-07-31T10:57:02.139Z,1006.6
2016-07-31T10:58:02.127Z,1006.62
2016-07-31T10:59:02.116Z,1006.61
2016-07-31T11:00:02.110Z,1006.6
2016-07-31T11:01:02.098Z,1006.63
2016-07-31T11:02:02.100Z,1006.66
2016-07-31T11:03:02.078Z,1006.61
2016-07-31T11:04:02.068Z,1006.61
2016-07-31T11:05:02.057Z,1006.63
2016-07-31T11:06:02.047Z,1006.65
2016-07-31T11:07:02.039Z,1006.64
2016-07-31T11:08:02.025Z,1006.61
2016-07-31T11:09:02.014Z,1006.59
2016-07-31T11:10:02.010Z,1006.57
2016-07-31T11:11:01.999Z,1006.56
2016-07-31T11:12:01.986Z,1006.59
2016-07-31T11:13:01.975Z,1006.61
2016-07-31T11:14:01.969Z,1006.61
2016-07-31T11:15:01.958Z,1006.65
2016-07-31T11:16:01.945Z,1006.68
2016-07-31T11:17:01.937Z,1006.7
2016-07-31T11:18:01.928Z,1006.73
2016-07-31T11:19:01.915Z,1006.76
2016-07-31T11:20:01.922Z,1006.72
2016-07-31T11:21:01.892Z,1006.79
2016-07-31T11:22:01.891Z,1006.81
2016-07-31T11:23:01.874Z,1006.8
2016-07-31T11:24:01.868Z,1006.83
2016-07-31T11:25:01.857Z,1006.89
2016-07-31T11:26:01.847Z,1006.92
2016-07-31T11:27:01.837Z,1006.85
2016-07-31T11:28:01.827Z,1006.94
2016-07-31T11:29:01.814Z,1006.98
2016-07-31T11:30:01.811Z,1006.98
2016-07-31T11:31:01.797Z,1006.93
2016-07-31T11:32:01.787Z,1006.94
2016-07-31T11:33:01.777Z,1006.99
2016-07-31T11:34:01.766Z,1006.94
2016-07-31T11:35:01.756Z,1006.97
2016-07-31T11:36:01.756Z,1006.92
2016-07-31T11:37:01.734Z,1006.93
2016-07-31T11:38:01.726Z,1006.96
2016-07-31T11:39:01.712Z,1006.91
2016-07-31T11:40:01.711Z,1006.93
2016-07-31T11:41:01.697Z,1006.92
2016-07-31T11:42:01.688Z,1006.87
2016-07-31T11:43:01.679Z,1006.88
2016-07-31T11:44:01.667Z,1006.87
2016-07-31T11:45:01.659Z,1006.89
2016-07-31T11:46:01.645Z,1006.9
2016-07-31T11:47:01.636Z,1006.92
2016-07-31T11:48:01.626Z,1006.93
2016-07-31T11:49:01.626Z,1007
2016-07-31T11:50:01.606Z,1007.02
2016-07-31T11:51:01.599Z,1007.02
2016-07-31T11:52:01.587Z,1007.07
2016-07-31T11:53:01.576Z,1007.06
2016-07-31T11:54:01.569Z,1007.07
2016-07-31T11:55:01.558Z,1007.07
2016-07-31T11:56:01.547Z,1007.03
2016-07-31T11:57:01.535Z,1007.01
2016-07-31T11:58:01.526Z,1007.03
2016-07-31T11:59:01.517Z,1007.08
2016-07-31T12:00:01.508Z,1007.07
2016-07-31T12:01:01.507Z,1007.04
2016-07-31T12:02:01.487Z,1007.09
2016-07-31T12:03:01.480Z,1007.08
2016-07-31T12:04:01.469Z,1007.07
2016-07-31T12:05:01.456Z,1007
2016-07-31T12:06:01.447Z,1007.1
2016-07-31T12:07:01.442Z,1007.12
2016-07-31T12:08:01.428Z,1007.12
2016-07-31T12:09:01.425Z,1007.17
2016-07-31T12:10:01.418Z,1007.16
2016-07-31T12:11:01.397Z,1007.16